LFBP/PUF METAR and TAF weather

Enter ICAO airport designator
Station Type Date Time Source
LFBP METAR 2019/02/21 16:00 UTC NOAA

LFBP 211600Z AUTO 04005KT CAVOK 20/04 Q1027 NOSIG


Station Type Date Time Source
LFBP Decoded METAR 2019/02/21 16:00 UTC NOAA

Pau, France (LFBP) 43-23N 000-25W 185M
Feb 21, 2019 - 11:00 AM EST / 2019.02.21 1600 UTC
Wind: from the NE (040 degrees) at 6 MPH (5 KT):0
Visibility: greater than 7 mile(s):0
Temperature: 68 F (20 C)
Dew Point: 39 F (4 C)
Relative Humidity: 34%
Pressure (altimeter): 30.33 in. Hg (1027 hPa)
ob: LFBP 211600Z AUTO 04005KT CAVOK 20/04 Q1027 NOSIG
cycle: 16

Station Type Date Time Source
LFBP TAF 2019/02/21 12:21 UTC NOAA

TAF LFBP 211100Z 2112/2212 12005KT CAVOK
TEMPO 2112/2120 VRB02KT


Example: see airport list